createdAt,value
2023-04-18T00:01:18.619Z,9.38
2023-04-18T00:04:08.233Z,9.70
2023-04-18T00:06:54.175Z,9.02
2023-04-18T00:09:40.630Z,9.52
2023-04-18T00:12:26.625Z,8.63
2023-04-18T00:15:12.778Z,8.68
2023-04-18T00:18:00.818Z,8.40
2023-04-18T00:20:46.929Z,8.75
2023-04-18T00:23:34.406Z,8.63
2023-04-18T00:26:19.843Z,8.18
2023-04-18T00:29:07.095Z,8.68
2023-04-18T00:31:54.500Z,8.73
2023-04-18T00:34:42.042Z,7.63
2023-04-18T00:37:27.833Z,8.20
2023-04-18T00:40:13.965Z,7.85
2023-04-18T00:43:00.201Z,7.80
2023-04-18T00:45:46.027Z,6.85
2023-04-18T00:48:32.190Z,7.60
2023-04-18T00:51:19.891Z,7.68
2023-04-18T00:54:06.721Z,7.47
2023-04-18T00:56:52.562Z,7.00
2023-04-18T00:59:39.027Z,8.40
2023-04-18T01:02:30.403Z,7.97
2023-04-18T01:05:18.154Z,7.45
2023-04-18T01:08:05.598Z,7.93
2023-04-18T01:10:53.852Z,7.25
2023-04-18T01:13:39.531Z,7.80
2023-04-18T01:16:24.989Z,7.80
2023-04-18T01:19:11.434Z,8.05
2023-04-18T01:21:59.775Z,7.80
2023-04-18T01:24:46.983Z,7.70
2023-04-18T01:27:32.627Z,7.63
2023-04-18T01:30:19.587Z,7.82
2023-04-18T01:33:05.893Z,7.50
2023-04-18T01:35:51.622Z,7.35
2023-04-18T01:38:37.296Z,7.88
2023-04-18T01:41:24.567Z,7.85
2023-04-18T01:44:10.339Z,7.32
2023-04-18T01:46:56.436Z,7.18
2023-04-18T01:49:46.700Z,7.45
2023-04-18T01:52:32.492Z,8.05
2023-04-18T01:55:18.593Z,7.28
2023-04-18T01:58:05.519Z,7.60
2023-04-18T02:00:52.416Z,7.10
2023-04-18T02:03:38.277Z,7.65
2023-04-18T02:06:27.124Z,7.55
2023-04-18T02:09:12.619Z,8.20
2023-04-18T02:12:02.534Z,7.90
2023-04-18T02:14:55.824Z,8.40
2023-04-18T02:17:42.244Z,7.22
2023-04-18T02:20:31.604Z,7.78
2023-04-18T02:23:20.104Z,6.93
2023-04-18T02:26:06.783Z,7.65
2023-04-18T02:28:52.379Z,7.55
2023-04-18T02:31:40.461Z,7.50
2023-04-18T02:34:26.506Z,7.82
2023-04-18T02:37:12.025Z,7.45
2023-04-18T02:39:59.560Z,7.57
2023-04-18T02:42:49.174Z,8.10
2023-04-18T02:45:35.019Z,6.90
2023-04-18T02:48:22.715Z,7.53
2023-04-18T02:51:09.386Z,7.28
2023-04-18T02:53:57.167Z,7.57
2023-04-18T02:56:46.429Z,7.18
2023-04-18T02:59:38.571Z,7.43
2023-04-18T03:02:36.184Z,7.65
2023-04-18T03:05:36.404Z,7.63
2023-04-18T03:08:25.688Z,7.35
2023-04-18T03:11:12.013Z,8.13
2023-04-18T03:13:58.006Z,8.07
2023-04-18T03:16:48.701Z,8.43
2023-04-18T03:19:38.947Z,8.40
2023-04-18T03:22:30.315Z,7.85
2023-04-18T03:25:18.051Z,6.97
2023-04-18T03:28:10.996Z,8.38
2023-04-18T03:30:56.845Z,8.00
2023-04-18T03:33:44.191Z,8.48
2023-04-18T03:36:31.383Z,8.00
2023-04-18T03:39:18.926Z,8.00
2023-04-18T03:42:05.429Z,7.68
2023-04-18T03:44:52.324Z,7.78
2023-04-18T03:47:38.524Z,7.43
2023-04-18T03:50:25.764Z,8.18
2023-04-18T03:53:14.455Z,8.15
2023-04-18T03:56:01.637Z,7.72
2023-04-18T03:59:01.939Z,7.78
2023-04-18T04:01:47.757Z,7.60
2023-04-18T04:04:33.790Z,8.43
2023-04-18T04:07:19.503Z,7.85
2023-04-18T04:10:06.782Z,8.25
2023-04-18T04:12:53.836Z,8.65
2023-04-18T04:15:39.831Z,7.60
2023-04-18T04:18:31.315Z,7.72
2023-04-18T04:21:21.054Z,8.65
2023-04-18T04:24:10.409Z,8.95
2023-04-18T04:27:00.404Z,8.82
2023-04-18T04:29:49.179Z,8.13
2023-04-18T04:32:38.920Z,8.77
2023-04-18T04:35:24.738Z,7.97
2023-04-18T04:38:12.424Z,7.85
2023-04-18T04:41:04.065Z,8.88
2023-04-18T04:43:51.197Z,8.18
2023-04-18T04:46:44.830Z,8.40
2023-04-18T04:49:38.245Z,8.90
2023-04-18T04:52:24.305Z,8.57
2023-04-18T04:55:10.832Z,7.88
2023-04-18T04:57:56.320Z,8.40
2023-04-18T05:00:58.441Z,9.25
2023-04-18T05:03:45.929Z,8.35
2023-04-18T05:06:33.888Z,8.52
2023-04-18T05:09:19.838Z,9.30
2023-04-18T05:12:05.982Z,8.73
2023-04-18T05:14:51.524Z,9.23
2023-04-18T05:17:37.098Z,9.50
2023-04-18T05:20:24.544Z,8.65
2023-04-18T05:23:10.290Z,8.77
2023-04-18T05:25:55.986Z,9.88
2023-04-18T05:28:41.625Z,9.05
2023-04-18T05:31:27.498Z,8.57
2023-04-18T05:34:13.162Z,9.45
2023-04-18T05:37:00.445Z,9.45
2023-04-18T05:39:46.584Z,10.00
2023-04-18T05:42:32.136Z,9.70
2023-04-18T05:45:17.711Z,9.93
2023-04-18T05:48:04.020Z,9.57
2023-04-18T05:50:49.749Z,9.50
2023-04-18T05:53:37.138Z,9.23
2023-04-18T05:56:22.728Z,10.18
2023-04-18T05:59:08.243Z,9.73
2023-04-18T06:01:53.938Z,9.00
2023-04-18T06:04:41.227Z,9.35
2023-04-18T06:07:27.033Z,8.77
2023-04-18T06:10:14.203Z,9.55
2023-04-18T06:12:59.777Z,9.63
2023-04-18T06:15:45.630Z,9.93
2023-04-18T06:18:31.372Z,9.27
2023-04-18T06:21:17.355Z,7.53
2023-04-18T06:24:02.975Z,8.98
2023-04-18T06:26:49.937Z,9.50
2023-04-18T06:29:36.861Z,9.20
2023-04-18T06:32:23.531Z,9.13
2023-04-18T06:35:09.462Z,9.75
2023-04-18T06:37:55.828Z,8.90
2023-04-18T06:40:41.662Z,8.75
2023-04-18T06:43:28.740Z,8.23
2023-04-18T06:46:14.586Z,8.00
2023-04-18T06:49:00.642Z,8.05
2023-04-18T06:51:46.675Z,6.88
2023-04-18T06:54:32.265Z,7.40
2023-04-18T06:57:18.063Z,7.82
2023-04-18T07:00:07.803Z,8.15
2023-04-18T07:02:53.570Z,5.70
2023-04-18T07:05:39.543Z,7.00
2023-04-18T07:08:25.175Z,5.93
2023-04-18T07:11:13.176Z,7.30
2023-04-18T07:13:58.957Z,6.82
2023-04-18T07:16:46.249Z,5.80
2023-04-18T07:19:31.837Z,7.22
2023-04-18T07:22:17.215Z,7.05
2023-04-18T07:25:03.166Z,6.53
2023-04-18T07:27:48.663Z,4.97
2023-04-18T07:30:34.931Z,6.80
2023-04-18T07:33:22.004Z,6.43
2023-04-18T07:36:08.374Z,5.65
2023-04-18T07:38:54.244Z,6.50
2023-04-18T07:41:40.092Z,5.68
2023-04-18T07:44:25.845Z,6.53
2023-04-18T07:47:12.889Z,5.22
2023-04-18T07:49:59.837Z,6.13
2023-04-18T07:52:48.060Z,6.18
2023-04-18T07:55:33.529Z,4.68
2023-04-18T07:58:19.108Z,5.65
2023-04-18T08:01:06.042Z,5.63
2023-04-18T08:03:53.555Z,6.07
2023-04-18T08:06:41.248Z,4.47
2023-04-18T08:09:26.887Z,3.88
2023-04-18T08:12:12.869Z,5.80
2023-04-18T08:14:58.658Z,5.70
2023-04-18T08:17:45.309Z,7.53
2023-04-18T08:20:31.131Z,5.85
2023-04-18T08:23:18.293Z,4.97
2023-04-18T08:26:03.935Z,4.95
2023-04-18T08:28:49.901Z,4.35
2023-04-18T08:31:35.333Z,4.90
2023-04-18T08:34:20.917Z,4.10
2023-04-18T08:37:07.355Z,5.60
2023-04-18T08:39:54.626Z,5.75
2023-04-18T08:42:44.817Z,5.53
2023-04-18T08:45:31.365Z,5.40
2023-04-18T08:48:18.221Z,4.78
2023-04-18T08:51:04.987Z,5.45
2023-04-18T08:53:51.032Z,5.18
2023-04-18T08:56:37.760Z,5.38
2023-04-18T08:59:23.810Z,5.00
2023-04-18T09:02:13.196Z,4.45
2023-04-18T09:04:59.666Z,4.90
2023-04-18T09:07:46.264Z,4.90
2023-04-18T09:10:34.062Z,5.00
2023-04-18T09:13:38.584Z,5.53
2023-04-18T09:16:24.917Z,4.22
2023-04-18T09:19:13.090Z,5.20
2023-04-18T09:22:02.018Z,4.88
2023-04-18T09:24:53.600Z,4.47
2023-04-18T09:27:39.090Z,4.82
2023-04-18T09:30:40.632Z,4.30
2023-04-18T09:36:18.759Z,3.85
2023-04-18T09:39:04.767Z,3.75
2023-04-18T09:41:58.580Z,4.18
2023-04-18T09:45:05.805Z,3.78
2023-04-18T09:47:53.967Z,3.78
2023-04-18T09:50:41.652Z,3.70
2023-04-18T09:53:29.667Z,3.60
2023-04-18T09:56:20.392Z,4.10
2023-04-18T09:59:08.754Z,3.78
2023-04-18T10:01:55.979Z,3.67
2023-04-18T10:04:45.611Z,4.18
2023-04-18T10:07:32.473Z,3.88
2023-04-18T10:10:18.431Z,3.35
2023-04-18T10:13:06.250Z,3.35
2023-04-18T10:15:52.585Z,3.22
2023-04-18T10:18:38.459Z,3.30
2023-04-18T10:21:28.496Z,2.22
2023-04-18T10:24:53.591Z,3.95
2023-04-18T10:27:59.111Z,3.28
2023-04-18T10:30:56.663Z,3.75
2023-04-18T10:36:36.757Z,3.40
2023-04-18T10:39:25.618Z,3.22
2023-04-18T10:42:11.652Z,3.50
2023-04-18T10:45:22.405Z,3.30
2023-04-18T10:48:30.200Z,3.05
2023-04-18T10:51:19.024Z,3.10
2023-04-18T10:54:09.608Z,3.45
2023-04-18T10:56:57.152Z,3.65
2023-04-18T10:59:44.155Z,2.85
2023-04-18T11:02:32.267Z,3.58
2023-04-18T11:05:23.229Z,4.53
2023-04-18T11:08:22.652Z,4.30
2023-04-18T11:11:11.362Z,3.95
2023-04-18T11:13:57.618Z,5.03
2023-04-18T11:16:43.433Z,4.72
2023-04-18T11:19:29.314Z,5.07
2023-04-18T11:22:15.895Z,4.50
2023-04-18T11:25:08.167Z,4.88
2023-04-18T11:27:57.967Z,5.72
2023-04-18T11:30:43.912Z,5.18
2023-04-18T11:33:30.230Z,5.18
2023-04-18T11:36:16.508Z,5.78
2023-04-18T11:39:02.382Z,6.07
2023-04-18T11:41:50.993Z,5.50
2023-04-18T11:44:40.013Z,5.60
2023-04-18T11:47:26.959Z,5.95
2023-04-18T11:50:13.825Z,6.00
2023-04-18T11:52:59.635Z,5.70
2023-04-18T11:55:54.927Z,5.80
2023-04-18T11:58:40.698Z,5.38
2023-04-18T12:01:27.657Z,5.32
2023-04-18T12:04:14.457Z,5.72
2023-04-18T12:07:00.940Z,5.85
2023-04-18T12:09:46.580Z,6.18
2023-04-18T12:12:32.636Z,6.38
2023-04-18T12:15:19.531Z,6.70
2023-04-18T12:18:09.801Z,5.97
2023-04-18T12:20:55.252Z,6.78
2023-04-18T12:23:42.412Z,6.75
2023-04-18T12:26:28.116Z,7.38
2023-04-18T12:29:14.337Z,7.00
2023-04-18T12:32:00.353Z,7.60
2023-04-18T12:34:48.142Z,7.88
2023-04-18T12:37:34.080Z,7.75
2023-04-18T12:40:20.806Z,7.95
2023-04-18T12:43:07.327Z,7.45
2023-04-18T12:45:53.693Z,8.85
2023-04-18T12:48:39.409Z,7.90
2023-04-18T12:51:27.903Z,7.43
2023-04-18T12:54:13.851Z,8.48
2023-04-18T12:56:59.870Z,8.45
2023-04-18T12:59:45.605Z,8.25
2023-04-18T13:02:32.220Z,8.27
2023-04-18T13:05:20.137Z,7.80
2023-04-18T13:08:16.120Z,8.73
2023-04-18T13:11:03.206Z,9.10
2023-04-18T13:13:49.004Z,9.30
2023-04-18T13:16:35.026Z,8.90
2023-04-18T13:19:21.001Z,9.00
2023-04-18T13:22:07.029Z,9.27
2023-04-18T13:24:54.625Z,8.13
2023-04-18T13:27:41.943Z,8.80
2023-04-18T13:30:27.988Z,8.40
2023-04-18T13:33:13.944Z,8.75
2023-04-18T13:35:59.868Z,8.80
2023-04-18T13:38:46.068Z,8.80
2023-04-18T13:41:33.559Z,8.98
2023-04-18T13:44:19.147Z,9.98
2023-04-18T13:47:06.641Z,9.55
2023-04-18T13:49:52.577Z,9.38
2023-04-18T13:52:38.088Z,9.85
2023-04-18T13:55:24.273Z,9.68
2023-04-18T13:58:11.274Z,9.43
2023-04-18T14:00:56.944Z,9.57
2023-04-18T14:03:43.870Z,9.55
2023-04-18T14:06:29.703Z,10.95
2023-04-18T14:09:16.760Z,9.18
2023-04-18T14:12:02.321Z,10.10
2023-04-18T14:14:49.541Z,9.48
2023-04-18T14:17:35.565Z,9.52
2023-04-18T14:20:21.540Z,9.52
2023-04-18T14:23:07.530Z,9.55
2023-04-18T14:25:53.424Z,10.07
2023-04-18T14:28:39.541Z,10.20
2023-04-18T14:31:28.182Z,10.48
2023-04-18T14:34:13.961Z,9.43
2023-04-18T14:36:59.999Z,10.20
2023-04-18T14:39:46.198Z,9.65
2023-04-18T14:42:32.082Z,19.08
2023-04-18T14:45:17.945Z,11.07
2023-04-18T14:48:07.907Z,10.13
2023-04-18T14:50:57.846Z,9.02
2023-04-18T14:53:43.827Z,9.68
2023-04-18T14:56:29.936Z,8.55
2023-04-18T14:59:16.760Z,9.23
2023-04-18T15:02:03.240Z,9.15
2023-04-18T15:04:50.849Z,9.07
2023-04-18T15:07:37.885Z,9.10
2023-04-18T15:10:24.078Z,9.98
2023-04-18T15:13:09.911Z,9.05
2023-04-18T15:15:56.960Z,9.07
2023-04-18T15:18:43.679Z,9.50
2023-04-18T15:21:30.502Z,8.93
2023-04-18T15:24:16.768Z,8.60
2023-04-18T15:27:03.479Z,7.35
2023-04-18T15:29:49.408Z,8.10
2023-04-18T15:32:35.134Z,9.45
2023-04-18T15:35:21.031Z,8.10
2023-04-18T15:38:08.129Z,8.85
2023-04-18T15:40:54.013Z,8.15
2023-04-18T15:43:42.362Z,8.73
2023-04-18T15:46:28.424Z,8.75
2023-04-18T15:49:14.169Z,8.93
2023-04-18T15:52:00.316Z,8.65
2023-04-18T15:54:47.252Z,8.55
2023-04-18T15:57:33.061Z,8.85
2023-04-18T16:00:19.804Z,8.10
2023-04-18T16:03:05.728Z,7.57
2023-04-18T16:05:51.698Z,8.45
2023-04-18T16:08:37.384Z,7.63
2023-04-18T16:11:26.345Z,7.63
2023-04-18T16:14:12.201Z,7.95
2023-04-18T16:16:59.677Z,8.10
2023-04-18T16:19:45.520Z,7.70
2023-04-18T16:22:31.208Z,7.50
2023-04-18T16:25:16.652Z,8.88
2023-04-18T16:28:03.743Z,7.97
2023-04-18T16:30:49.852Z,8.15
2023-04-18T16:33:35.487Z,8.02
2023-04-18T16:36:21.252Z,8.00
2023-04-18T16:39:06.989Z,7.88
2023-04-18T16:41:52.450Z,8.23
2023-04-18T16:44:39.646Z,7.53
2023-04-18T16:47:25.956Z,8.05
2023-04-18T16:50:11.772Z,7.75
2023-04-18T16:52:57.663Z,8.32
2023-04-18T16:55:43.324Z,8.55
2023-04-18T16:58:29.258Z,8.10
2023-04-18T17:01:16.193Z,8.60
2023-04-18T17:04:02.411Z,7.72
2023-04-18T17:06:49.740Z,17.92
2023-04-18T17:09:37.621Z,35.78
2023-04-18T17:12:23.046Z,27.77
2023-04-18T17:15:09.252Z,37.50
2023-04-18T17:17:56.624Z,32.65
2023-04-18T17:20:42.479Z,18.45
2023-04-18T17:23:28.693Z,8.80
2023-04-18T17:26:15.714Z,11.93
2023-04-18T17:29:03.285Z,7.88
2023-04-18T17:31:48.872Z,13.70
2023-04-18T17:34:36.367Z,9.23
2023-04-18T17:37:22.413Z,8.02
2023-04-18T17:40:10.048Z,7.75
2023-04-18T17:42:55.845Z,8.25
2023-04-18T17:45:41.964Z,14.65
2023-04-18T17:48:28.033Z,15.02
2023-04-18T17:51:19.409Z,16.17
2023-04-18T17:54:05.517Z,20.50
2023-04-18T17:56:51.714Z,10.48
2023-04-18T17:59:37.826Z,11.70
2023-04-18T18:02:23.794Z,8.95
2023-04-18T18:05:13.708Z,12.05
2023-04-18T18:08:01.498Z,12.57
2023-04-18T18:10:48.017Z,10.70
2023-04-18T18:13:34.095Z,18.92
2023-04-18T18:16:19.924Z,13.73
2023-04-18T18:19:09.341Z,9.73
2023-04-18T18:21:55.265Z,9.60
2023-04-18T18:24:42.468Z,7.47
2023-04-18T18:27:28.257Z,9.98
2023-04-18T18:30:14.407Z,9.98
2023-04-18T18:33:01.541Z,9.68
2023-04-18T18:35:47.339Z,7.93
2023-04-18T18:38:33.250Z,7.28
2023-04-18T18:41:20.928Z,7.75
2023-04-18T18:44:07.156Z,7.68
2023-04-18T18:46:53.253Z,7.57
2023-04-18T18:49:39.244Z,10.50
2023-04-18T18:52:27.993Z,11.88
2023-04-18T18:55:13.691Z,9.98
2023-04-18T18:58:01.084Z,10.27
2023-04-18T19:00:46.921Z,10.75
2023-04-18T19:03:34.141Z,7.97
2023-04-18T19:06:19.876Z,8.13
2023-04-18T19:09:06.054Z,8.77
2023-04-18T19:11:51.784Z,7.43
2023-04-18T19:14:40.241Z,7.20
2023-04-18T19:17:27.150Z,7.70
2023-04-18T19:20:13.034Z,7.07
2023-04-18T19:22:58.694Z,7.18
2023-04-18T19:25:44.928Z,7.07
2023-04-18T19:28:30.849Z,7.43
2023-04-18T19:31:18.065Z,6.82
2023-04-18T19:34:03.972Z,7.82
2023-04-18T19:36:49.936Z,7.00
2023-04-18T19:39:35.784Z,6.80
2023-04-18T19:42:21.884Z,6.25
2023-04-18T19:45:08.913Z,6.05
2023-04-18T19:47:56.357Z,6.28
2023-04-18T19:50:42.347Z,7.38
2023-04-18T19:53:28.589Z,5.88
2023-04-18T19:56:14.969Z,5.82
2023-04-18T19:59:01.692Z,5.85
2023-04-18T20:01:47.602Z,6.32
2023-04-18T20:04:36.528Z,6.32
2023-04-18T20:07:23.673Z,6.90
2023-04-18T20:10:11.472Z,6.30
2023-04-18T20:12:57.422Z,6.85
2023-04-18T20:15:43.519Z,6.40
2023-04-18T20:18:30.382Z,5.88
2023-04-18T20:21:17.649Z,5.68
2023-04-18T20:24:03.869Z,6.15
2023-04-18T20:26:49.639Z,5.80
2023-04-18T20:29:35.315Z,6.40
2023-04-18T20:32:21.730Z,5.55
2023-04-18T20:35:08.456Z,5.97
2023-04-18T20:37:55.912Z,6.35
2023-04-18T20:40:44.989Z,5.82
2023-04-18T20:43:36.391Z,5.80
2023-04-18T20:46:22.170Z,5.95
2023-04-18T20:49:08.802Z,6.55
2023-04-18T20:51:54.744Z,6.63
2023-04-18T20:54:42.043Z,6.63
2023-04-18T20:57:28.112Z,6.85
2023-04-18T21:00:14.391Z,6.85
2023-04-18T21:03:00.605Z,6.95
2023-04-18T21:05:46.520Z,7.00
2023-04-18T21:08:34.677Z,6.53
2023-04-18T21:11:21.856Z,6.70
2023-04-18T21:14:07.610Z,6.40
2023-04-18T21:16:53.376Z,6.38
2023-04-18T21:19:47.585Z,6.13
2023-04-18T21:22:33.420Z,6.13
2023-04-18T21:25:21.206Z,6.90
2023-04-18T21:28:08.130Z,6.65
2023-04-18T21:30:53.721Z,6.55
2023-04-18T21:33:39.348Z,7.28
2023-04-18T21:36:29.212Z,6.22
2023-04-18T21:39:14.779Z,6.40
2023-04-18T21:42:01.787Z,6.80
2023-04-18T21:44:48.746Z,6.85
2023-04-18T21:47:34.336Z,6.97
2023-04-18T21:50:20.600Z,6.57
2023-04-18T21:53:06.375Z,6.43
2023-04-18T21:55:52.311Z,6.38
2023-04-18T21:58:38.312Z,6.85
2023-04-18T22:01:25.823Z,6.78
2023-04-18T22:04:12.418Z,6.68
2023-04-18T22:06:58.617Z,6.63
2023-04-18T22:09:44.735Z,6.80
2023-04-18T22:12:30.749Z,6.80
2023-04-18T22:15:18.165Z,6.55
2023-04-18T22:18:06.134Z,6.38
2023-04-18T22:20:53.685Z,7.03
2023-04-18T22:23:39.881Z,7.07
2023-04-18T22:26:26.021Z,6.95
2023-04-18T22:29:11.873Z,7.25
2023-04-18T22:31:57.868Z,7.07
2023-04-18T22:34:45.390Z,7.05
2023-04-18T22:37:31.267Z,7.10
2023-04-18T22:40:17.667Z,7.20
2023-04-18T22:43:03.252Z,7.40
2023-04-18T22:45:49.295Z,6.50
2023-04-18T22:48:35.237Z,7.00
2023-04-18T22:51:23.423Z,6.78
2023-04-18T22:54:09.024Z,7.22
2023-04-18T22:56:54.681Z,6.82
2023-04-18T22:59:40.781Z,6.65
2023-04-18T23:02:26.952Z,6.57
2023-04-18T23:05:15.445Z,6.40
2023-04-18T23:08:02.872Z,6.95
2023-04-18T23:10:48.997Z,7.05
2023-04-18T23:13:34.644Z,6.68
2023-04-18T23:16:20.651Z,6.68
2023-04-18T23:19:06.703Z,6.95
2023-04-18T23:21:52.566Z,7.30
2023-04-18T23:24:39.362Z,6.70
2023-04-18T23:27:25.376Z,6.53
2023-04-18T23:30:11.950Z,7.18
2023-04-18T23:32:57.800Z,6.30
2023-04-18T23:35:43.684Z,6.95
2023-04-18T23:38:30.639Z,7.15
2023-04-18T23:41:17.514Z,7.20
2023-04-18T23:44:03.175Z,6.57
2023-04-18T23:46:49.378Z,7.30
2023-04-18T23:49:35.259Z,6.45
2023-04-18T23:52:21.234Z,6.68
2023-04-18T23:55:08.126Z,6.20
2023-04-18T23:57:55.250Z,7.18
